createdAt,value
2022-08-28T00:04:37.295Z,61.52
2022-08-28T00:09:38.689Z,61.22
2022-08-28T00:14:40.414Z,61.76
2022-08-28T00:19:41.770Z,61.54
2022-08-28T00:24:44.520Z,61.52
2022-08-28T00:29:45.894Z,61.54
2022-08-28T00:34:47.194Z,61.53
2022-08-28T00:39:49.259Z,61.54
2022-08-28T00:44:50.657Z,60.68
2022-08-28T00:49:54.625Z,60.98
2022-08-28T00:55:03.586Z,60.95
2022-08-28T01:00:17.166Z,60.59
2022-08-28T01:05:19.153Z,61.01
2022-08-28T01:10:23.646Z,60.77
2022-08-28T01:15:29.611Z,61.45
2022-08-28T01:20:33.433Z,61.23
2022-08-28T01:25:37.075Z,60.85
2022-08-28T01:30:42.387Z,61.70
2022-08-28T01:35:47.503Z,61.84
2022-08-28T01:40:53.639Z,61.62
2022-08-28T01:46:04.353Z,62.11
2022-08-28T01:51:05.985Z,62.45
2022-08-28T01:56:12.466Z,61.81
2022-08-28T02:01:17.132Z,61.65
2022-08-28T02:06:19.249Z,61.80
2022-08-28T02:11:23.798Z,62.58
2022-08-28T02:16:25.922Z,62.51
2022-08-28T02:21:27.281Z,62.59
2022-08-28T02:26:29.500Z,63.00
2022-08-28T02:31:31.055Z,63.76
2022-08-28T02:36:33.675Z,63.17
2022-08-28T02:41:35.105Z,64.24
2022-08-28T02:46:36.641Z,63.59
2022-08-28T02:51:38.099Z,63.21
2022-08-28T02:56:39.446Z,63.65
2022-08-28T03:01:40.842Z,63.25
2022-08-28T03:06:42.398Z,63.65
2022-08-28T03:11:43.725Z,63.43
2022-08-28T03:16:45.122Z,63.46
2022-08-28T03:21:46.465Z,63.69
2022-08-28T03:26:48.231Z,63.02
2022-08-28T03:31:49.592Z,62.83
2022-08-28T03:36:50.973Z,63.30
2022-08-28T03:41:52.286Z,63.83
2022-08-28T03:46:53.609Z,63.88
2022-08-28T03:51:54.923Z,65.92
2022-08-28T03:56:56.234Z,65.08
2022-08-28T04:01:57.562Z,63.29
2022-08-28T04:06:58.866Z,63.80
2022-08-28T04:12:00.471Z,62.61
2022-08-28T04:17:02.007Z,62.17
2022-08-28T04:22:03.717Z,62.41
2022-08-28T04:27:05.953Z,62.30
2022-08-28T04:32:07.430Z,62.34
2022-08-28T04:37:08.841Z,62.06
2022-08-28T04:42:10.290Z,62.37
2022-08-28T04:47:11.609Z,61.61
2022-08-28T04:52:13.335Z,61.97
2022-08-28T04:57:14.633Z,62.04
2022-08-28T05:02:16.126Z,61.79
2022-08-28T05:07:17.523Z,61.47
2022-08-28T05:12:19.624Z,61.60
2022-08-28T05:17:20.948Z,62.18
2022-08-28T05:22:23.080Z,61.76
2022-08-28T05:27:24.443Z,61.21
2022-08-28T05:32:25.741Z,61.60
2022-08-28T05:37:27.643Z,61.17
2022-08-28T05:42:31.356Z,62.00
2022-08-28T05:47:33.781Z,62.57
2022-08-28T05:52:35.745Z,61.96
2022-08-28T05:57:37.234Z,61.66
2022-08-28T06:02:40.055Z,61.49
2022-08-28T06:07:41.705Z,62.38
2022-08-28T06:12:43.013Z,61.78
2022-08-28T06:17:44.305Z,59.32
2022-08-28T06:22:45.621Z,60.21
2022-08-28T06:27:46.948Z,59.73
2022-08-28T06:32:48.460Z,60.06
2022-08-28T06:37:49.943Z,58.69
2022-08-28T06:42:51.604Z,58.75
2022-08-28T06:47:52.989Z,58.40
2022-08-28T06:52:54.840Z,59.33
2022-08-28T06:57:56.206Z,58.12
2022-08-28T07:02:58.344Z,58.17
2022-08-28T07:08:00.618Z,57.41
2022-08-28T07:13:03.474Z,56.31
2022-08-28T07:18:04.830Z,57.31
2022-08-28T07:23:06.191Z,57.35
2022-08-28T07:28:08.517Z,55.73
2022-08-28T07:33:09.986Z,56.03
2022-08-28T07:38:11.489Z,54.96
2022-08-28T07:43:31.570Z,54.95
2022-08-28T07:48:37.028Z,54.73
2022-08-28T07:53:38.392Z,55.53
2022-08-28T07:58:40.318Z,53.39
2022-08-28T08:03:41.976Z,52.57
2022-08-28T08:08:45.193Z,50.59
2022-08-28T08:13:47.633Z,50.43
2022-08-28T08:18:53.127Z,50.85
2022-08-28T08:23:56.061Z,50.09
2022-08-28T08:28:58.026Z,49.27
2022-08-28T08:34:02.439Z,49.07
2022-08-28T08:39:06.789Z,47.87
2022-08-28T08:44:33.499Z,46.24
2022-08-28T08:49:39.533Z,46.23
2022-08-28T08:54:51.659Z,44.41
2022-08-28T08:59:53.119Z,43.53
2022-08-28T09:05:03.083Z,43.71
2022-08-28T09:10:07.421Z,42.49
2022-08-28T09:15:26.363Z,42.07
2022-08-28T09:20:32.784Z,42.31
2022-08-28T09:25:44.153Z,40.67
2022-08-28T09:30:57.481Z,39.40
2022-08-28T09:36:29.541Z,38.82
2022-08-28T09:41:50.180Z,37.92
2022-08-28T09:46:52.267Z,38.57
2022-08-28T09:51:54.425Z,37.52
2022-08-28T09:56:56.093Z,38.02
2022-08-28T10:02:24.378Z,35.73
2022-08-28T10:07:34.894Z,34.86
2022-08-28T10:12:51.546Z,33.25
2022-08-28T10:18:25.997Z,32.81
2022-08-28T10:23:34.649Z,31.68
2022-08-28T10:28:57.675Z,27.66
2022-08-28T10:34:15.065Z,26.99
2022-08-28T10:39:45.566Z,28.34
2022-08-28T10:45:04.564Z,28.01
2022-08-28T10:50:18.408Z,23.86
2022-08-28T10:55:27.951Z,20.89
2022-08-28T11:00:30.161Z,20.16
2022-08-28T11:05:38.165Z,20.21
2022-08-28T11:10:48.353Z,17.86
2022-08-28T11:15:53.232Z,18.49
2022-08-28T11:21:09.839Z,16.53
2022-08-28T11:26:14.459Z,15.28
2022-08-28T11:31:16.356Z,14.70
2022-08-28T11:36:30.161Z,15.65
2022-08-28T11:41:56.115Z,14.67
2022-08-28T11:47:36.423Z,14.98
2022-08-28T11:53:15.777Z,13.18
2022-08-28T11:58:49.862Z,14.41
2022-08-28T12:04:15.936Z,12.78
2022-08-28T12:09:26.434Z,14.20
2022-08-28T12:14:28.185Z,13.82
2022-08-28T12:19:56.087Z,14.33
2022-08-28T12:25:02.186Z,16.96
2022-08-28T12:30:03.912Z,17.83
2022-08-28T12:35:17.029Z,18.58
2022-08-28T12:40:50.237Z,19.16
2022-08-28T12:46:18.910Z,19.83
2022-08-28T12:51:27.481Z,19.99
2022-08-28T12:56:34.017Z,20.25
2022-08-28T13:01:35.557Z,19.57
2022-08-28T13:06:39.090Z,20.21
2022-08-28T13:11:47.051Z,20.97
2022-08-28T13:16:48.588Z,20.00
2022-08-28T13:22:00.323Z,22.25
2022-08-28T13:27:16.701Z,21.45
2022-08-28T13:32:18.707Z,21.98
2022-08-28T13:37:52.187Z,24.38
2022-08-28T13:43:00.820Z,21.87
2022-08-28T13:48:02.527Z,22.69
2022-08-28T13:53:04.238Z,23.12
2022-08-28T13:58:05.606Z,23.19
2022-08-28T14:03:25.539Z,24.06
2022-08-28T14:08:27.153Z,23.17
2022-08-28T14:13:28.478Z,24.22
2022-08-28T14:18:29.767Z,23.87
2022-08-28T14:23:31.082Z,24.11
2022-08-28T14:28:32.461Z,24.08
2022-08-28T14:33:36.801Z,23.98
2022-08-28T14:38:38.430Z,24.78
2022-08-28T14:43:39.841Z,25.46
2022-08-28T14:48:41.198Z,24.99
2022-08-28T14:53:43.552Z,26.43
2022-08-28T14:58:45.397Z,25.11
2022-08-28T15:03:46.938Z,25.67
2022-08-28T15:08:49.490Z,26.43
2022-08-28T15:13:52.301Z,26.10
2022-08-28T15:18:55.349Z,25.79
2022-08-28T15:23:57.704Z,26.55
2022-08-28T15:29:02.226Z,26.84
2022-08-28T15:34:06.391Z,27.44
2022-08-28T15:39:34.037Z,27.39
2022-08-28T15:44:35.507Z,27.08
2022-08-28T15:49:46.685Z,27.58
2022-08-28T15:54:51.001Z,28.22
2022-08-28T15:59:52.347Z,28.71
2022-08-28T16:04:54.164Z,29.18
2022-08-28T16:09:55.561Z,29.03
2022-08-28T16:14:57.186Z,28.98
2022-08-28T16:19:58.516Z,29.37
2022-08-28T16:24:59.816Z,28.74
2022-08-28T16:30:01.112Z,29.20
2022-08-28T16:35:03.789Z,29.71
2022-08-28T16:40:09.556Z,30.64
2022-08-28T16:45:11.337Z,29.42
2022-08-28T16:50:14.145Z,29.82
2022-08-28T16:55:15.622Z,30.12
2022-08-28T17:00:17.387Z,30.15
2022-08-28T17:05:19.683Z,30.36
2022-08-28T17:10:23.125Z,30.72
2022-08-28T17:15:24.721Z,31.17
2022-08-28T17:20:44.750Z,31.03
2022-08-28T17:25:46.114Z,32.02
2022-08-28T17:30:47.425Z,32.03
2022-08-28T17:35:50.353Z,32.68
2022-08-28T17:40:53.545Z,32.54
2022-08-28T17:45:54.875Z,31.94
2022-08-28T17:50:58.164Z,32.39
2022-08-28T17:56:02.653Z,32.55
2022-08-28T18:01:04.769Z,32.96
2022-08-28T18:06:06.689Z,33.44
2022-08-28T18:11:08.413Z,33.66
2022-08-28T18:16:10.218Z,33.81
2022-08-28T18:21:13.145Z,34.58
2022-08-28T18:26:15.258Z,33.73
2022-08-28T18:31:17.352Z,34.30
2022-08-28T18:36:18.815Z,34.03
2022-08-28T18:41:20.725Z,34.32
2022-08-28T18:46:22.394Z,34.90
2022-08-28T18:51:24.021Z,35.14
2022-08-28T18:56:25.389Z,35.04
2022-08-28T19:01:31.805Z,35.49
2022-08-28T19:06:34.769Z,36.29
2022-08-28T19:11:36.775Z,35.89
2022-08-28T19:16:38.981Z,36.41
2022-08-28T19:21:40.645Z,36.04
2022-08-28T19:26:41.977Z,36.46
2022-08-28T19:31:46.208Z,38.41
2022-08-28T19:36:47.589Z,37.90
2022-08-28T19:41:48.934Z,37.03
2022-08-28T19:46:50.304Z,36.46
2022-08-28T19:51:51.603Z,38.74
2022-08-28T19:56:52.904Z,36.76
2022-08-28T20:01:54.333Z,36.69
2022-08-28T20:06:55.856Z,38.03
2022-08-28T20:11:57.236Z,37.96
2022-08-28T20:16:58.645Z,37.80
2022-08-28T20:21:59.945Z,38.85
2022-08-28T20:27:01.280Z,38.56
2022-08-28T20:32:03.019Z,38.58
2022-08-28T20:37:04.875Z,40.04
2022-08-28T20:42:06.525Z,39.42
2022-08-28T20:47:07.954Z,39.70
2022-08-28T20:52:10.840Z,40.34
2022-08-28T20:57:15.593Z,43.55
2022-08-28T21:02:19.597Z,40.95
2022-08-28T21:07:24.025Z,41.60
2022-08-28T21:12:26.222Z,42.24
2022-08-28T21:17:30.106Z,41.13
2022-08-28T21:22:33.058Z,42.17
2022-08-28T21:27:37.534Z,41.67
2022-08-28T21:32:39.232Z,42.85
2022-08-28T21:37:41.829Z,41.77
2022-08-28T21:42:43.779Z,43.17
2022-08-28T21:47:45.165Z,41.88
2022-08-28T21:52:46.701Z,41.70
2022-08-28T21:57:48.682Z,41.37
2022-08-28T22:02:50.276Z,42.12
2022-08-28T22:07:51.878Z,43.51
2022-08-28T22:12:53.217Z,42.36
2022-08-28T22:17:54.733Z,41.70
2022-08-28T22:23:11.006Z,43.08
2022-08-28T22:28:12.697Z,42.27
2022-08-28T22:33:14.602Z,42.96
2022-08-28T22:38:16.308Z,42.75
2022-08-28T22:43:18.521Z,43.22
2022-08-28T22:48:19.959Z,43.83
2022-08-28T22:53:21.332Z,43.34
2022-08-28T22:58:22.653Z,44.56
2022-08-28T23:03:24.449Z,42.84
2022-08-28T23:08:27.846Z,43.19
2022-08-28T23:13:31.348Z,44.63
2022-08-28T23:18:51.938Z,44.74
2022-08-28T23:23:55.002Z,45.15
2022-08-28T23:28:56.376Z,43.66
2022-08-28T23:33:57.735Z,46.29
2022-08-28T23:39:00.096Z,43.02
2022-08-28T23:44:05.286Z,44.14
2022-08-28T23:49:11.999Z,44.14
2022-08-28T23:54:14.081Z,44.03
2022-08-28T23:59:16.781Z,43.83
